sensor_id;sensor_type;location;lat;lon;timestamp;temperature;humidity
25550;DHT22;13444;50.562;7.262;2023-03-15T00:01:37;2.20;99.90
25550;DHT22;13444;50.562;7.262;2023-03-15T00:04:03;2.20;99.90
25550;DHT22;13444;50.562;7.262;2023-03-15T00:06:32;2.10;99.90
25550;DHT22;13444;50.562;7.262;2023-03-15T00:08:59;2.10;99.90
25550;DHT22;13444;50.562;7.262;2023-03-15T00:11:27;2.10;99.90
25550;DHT22;13444;50.562;7.262;2023-03-15T00:13:55;2.10;99.90
25550;DHT22;13444;50.562;7.262;2023-03-15T00:16:21;2.10;99.90
25550;DHT22;13444;50.562;7.262;2023-03-15T00:18:53;2.10;99.90
25550;DHT22;13444;50.562;7.262;2023-03-15T00:21:18;2.10;99.90
25550;DHT22;13444;50.562;7.262;2023-03-15T00:23:44;2.00;99.90
25550;DHT22;13444;50.562;7.262;2023-03-15T00:26:10;2.00;99.90
25550;DHT22;13444;50.562;7.262;2023-03-15T00:28:35;2.00;99.90
25550;DHT22;13444;50.562;7.262;2023-03-15T00:31:06;2.00;99.90
25550;DHT22;13444;50.562;7.262;2023-03-15T00:33:33;2.00;99.90
25550;DHT22;13444;50.562;7.262;2023-03-15T00:36:07;2.00;99.90
25550;DHT22;13444;50.562;7.262;2023-03-15T00:38:34;2.00;99.90
25550;DHT22;13444;50.562;7.262;2023-03-15T00:41:14;2.00;99.90
25550;DHT22;13444;50.562;7.262;2023-03-15T00:43:40;1.90;99.90
25550;DHT22;13444;50.562;7.262;2023-03-15T00:46:06;1.90;99.90
25550;DHT22;13444;50.562;7.262;2023-03-15T00:48:33;1.80;99.90
25550;DHT22;13444;50.562;7.262;2023-03-15T00:53:29;1.80;99.90
25550;DHT22;13444;50.562;7.262;2023-03-15T00:55:55;1.70;99.90
25550;DHT22;13444;50.562;7.262;2023-03-15T00:58:21;1.70;99.90
25550;DHT22;13444;50.562;7.262;2023-03-15T01:00:46;1.60;99.90
25550;DHT22;13444;50.562;7.262;2023-03-15T01:03:12;1.60;99.90
25550;DHT22;13444;50.562;7.262;2023-03-15T01:05:37;1.50;99.90
25550;DHT22;13444;50.562;7.262;2023-03-15T01:08:03;1.50;99.90
25550;DHT22;13444;50.562;7.262;2023-03-15T01:10:28;1.50;99.90
25550;DHT22;13444;50.562;7.262;2023-03-15T01:12:54;1.50;99.90
25550;DHT22;13444;50.562;7.262;2023-03-15T01:15:20;1.50;99.90
25550;DHT22;13444;50.562;7.262;2023-03-15T01:17:45;1.50;99.90
25550;DHT22;13444;50.562;7.262;2023-03-15T01:20:12;1.50;99.90
25550;DHT22;13444;50.562;7.262;2023-03-15T01:22:38;1.40;99.90
25550;DHT22;13444;50.562;7.262;2023-03-15T01:25:04;1.40;99.90
25550;DHT22;13444;50.562;7.262;2023-03-15T01:27:29;1.40;99.90
25550;DHT22;13444;50.562;7.262;2023-03-15T01:29:55;1.40;99.90
25550;DHT22;13444;50.562;7.262;2023-03-15T01:32:21;1.40;99.90
25550;DHT22;13444;50.562;7.262;2023-03-15T01:34:46;1.40;99.90
25550;DHT22;13444;50.562;7.262;2023-03-15T01:37:12;1.50;99.90
25550;DHT22;13444;50.562;7.262;2023-03-15T01:39:39;1.50;99.90
25550;DHT22;13444;50.562;7.262;2023-03-15T01:42:05;1.60;99.90
25550;DHT22;13444;50.562;7.262;2023-03-15T01:44:58;1.60;99.90
25550;DHT22;13444;50.562;7.262;2023-03-15T01:47:27;1.70;99.90
25550;DHT22;13444;50.562;7.262;2023-03-15T01:50:05;1.70;99.90
25550;DHT22;13444;50.562;7.262;2023-03-15T01:52:37;1.70;99.90
25550;DHT22;13444;50.562;7.262;2023-03-15T01:55:12;1.70;99.90
25550;DHT22;13444;50.562;7.262;2023-03-15T01:57:44;1.70;99.90
25550;DHT22;13444;50.562;7.262;2023-03-15T02:00:13;1.70;99.90
25550;DHT22;13444;50.562;7.262;2023-03-15T02:02:49;1.70;99.90
25550;DHT22;13444;50.562;7.262;2023-03-15T02:05:20;1.70;99.90
25550;DHT22;13444;50.562;7.262;2023-03-15T02:07:47;1.70;99.90
25550;DHT22;13444;50.562;7.262;2023-03-15T02:10:36;1.70;99.90
25550;DHT22;13444;50.562;7.262;2023-03-15T02:13:03;1.80;99.90
25550;DHT22;13444;50.562;7.262;2023-03-15T02:15:29;1.80;99.90
25550;DHT22;13444;50.562;7.262;2023-03-15T02:17:55;1.80;99.90
25550;DHT22;13444;50.562;7.262;2023-03-15T02:23:07;1.80;99.90
25550;DHT22;13444;50.562;7.262;2023-03-15T02:25:48;2.00;99.90
25550;DHT22;13444;50.562;7.262;2023-03-15T02:28:17;1.90;99.90
25550;DHT22;13444;50.562;7.262;2023-03-15T02:30:45;2.00;99.90
25550;DHT22;13444;50.562;7.262;2023-03-15T02:33:33;2.10;99.90
25550;DHT22;13444;50.562;7.262;2023-03-15T02:36:26;2.10;99.90
25550;DHT22;13444;50.562;7.262;2023-03-15T02:38:53;2.10;99.90
25550;DHT22;13444;50.562;7.262;2023-03-15T02:41:32;2.10;99.90
25550;DHT22;13444;50.562;7.262;2023-03-15T02:44:03;2.10;99.90
25550;DHT22;13444;50.562;7.262;2023-03-15T02:46:31;2.10;99.90
25550;DHT22;13444;50.562;7.262;2023-03-15T02:48:57;2.20;99.90
25550;DHT22;13444;50.562;7.262;2023-03-15T02:51:27;2.20;99.90
25550;DHT22;13444;50.562;7.262;2023-03-15T02:53:53;2.20;99.90
25550;DHT22;13444;50.562;7.262;2023-03-15T02:56:19;2.30;99.90
25550;DHT22;13444;50.562;7.262;2023-03-15T02:58:44;2.30;99.90
25550;DHT22;13444;50.562;7.262;2023-03-15T03:01:11;2.30;99.90
25550;DHT22;13444;50.562;7.262;2023-03-15T03:03:41;2.40;99.90
25550;DHT22;13444;50.562;7.262;2023-03-15T03:06:08;2.40;99.90
25550;DHT22;13444;50.562;7.262;2023-03-15T03:08:34;2.40;99.90
25550;DHT22;13444;50.562;7.262;2023-03-15T03:10:59;2.40;99.90
25550;DHT22;13444;50.562;7.262;2023-03-15T03:13:25;2.40;99.90
25550;DHT22;13444;50.562;7.262;2023-03-15T03:15:50;2.50;99.90
25550;DHT22;13444;50.562;7.262;2023-03-15T03:18:24;2.50;99.90
25550;DHT22;13444;50.562;7.262;2023-03-15T03:20:49;2.50;99.90
25550;DHT22;13444;50.562;7.262;2023-03-15T03:23:15;2.60;99.90
25550;DHT22;13444;50.562;7.262;2023-03-15T03:25:40;2.60;99.90
25550;DHT22;13444;50.562;7.262;2023-03-15T03:28:06;2.60;99.90
25550;DHT22;13444;50.562;7.262;2023-03-15T03:30:34;2.60;99.90
25550;DHT22;13444;50.562;7.262;2023-03-15T03:32:59;2.60;99.90
25550;DHT22;13444;50.562;7.262;2023-03-15T03:35:25;2.60;99.90
25550;DHT22;13444;50.562;7.262;2023-03-15T03:37:51;2.70;99.90
25550;DHT22;13444;50.562;7.262;2023-03-15T03:40:17;2.70;99.90
25550;DHT22;13444;50.562;7.262;2023-03-15T03:42:43;2.80;99.90
25550;DHT22;13444;50.562;7.262;2023-03-15T03:45:09;2.80;99.90
25550;DHT22;13444;50.562;7.262;2023-03-15T03:47:34;2.90;99.90
25550;DHT22;13444;50.562;7.262;2023-03-15T03:50:00;2.90;99.90
25550;DHT22;13444;50.562;7.262;2023-03-15T03:52:26;2.90;99.90
25550;DHT22;13444;50.562;7.262;2023-03-15T03:54:51;2.90;99.90
25550;DHT22;13444;50.562;7.262;2023-03-15T03:57:17;3.00;99.90
25550;DHT22;13444;50.562;7.262;2023-03-15T03:59:42;3.00;99.90
25550;DHT22;13444;50.562;7.262;2023-03-15T04:02:08;3.00;99.90
25550;DHT22;13444;50.562;7.262;2023-03-15T04:04:33;3.00;99.90
25550;DHT22;13444;50.562;7.262;2023-03-15T04:06:59;3.00;99.90
25550;DHT22;13444;50.562;7.262;2023-03-15T04:09:24;3.10;99.90
25550;DHT22;13444;50.562;7.262;2023-03-15T04:11:50;3.00;99.90
25550;DHT22;13444;50.562;7.262;2023-03-15T04:14:15;3.10;99.90
25550;DHT22;13444;50.562;7.262;2023-03-15T04:16:41;3.00;99.90
25550;DHT22;13444;50.562;7.262;2023-03-15T04:19:07;3.00;99.90
25550;DHT22;13444;50.562;7.262;2023-03-15T04:21:32;3.00;99.90
25550;DHT22;13444;50.562;7.262;2023-03-15T04:23:59;2.90;99.90
25550;DHT22;13444;50.562;7.262;2023-03-15T04:26:26;2.90;99.90
25550;DHT22;13444;50.562;7.262;2023-03-15T04:28:56;2.90;99.90
25550;DHT22;13444;50.562;7.262;2023-03-15T04:31:22;2.90;99.90
25550;DHT22;13444;50.562;7.262;2023-03-15T04:33:54;2.90;99.90
25550;DHT22;13444;50.562;7.262;2023-03-15T04:36:23;2.90;99.90
25550;DHT22;13444;50.562;7.262;2023-03-15T04:38:49;2.90;99.90
25550;DHT22;13444;50.562;7.262;2023-03-15T04:41:16;3.00;99.90
25550;DHT22;13444;50.562;7.262;2023-03-15T04:43:43;3.00;99.90
25550;DHT22;13444;50.562;7.262;2023-03-15T04:46:09;3.10;99.90
25550;DHT22;13444;50.562;7.262;2023-03-15T04:48:35;3.10;99.90
25550;DHT22;13444;50.562;7.262;2023-03-15T04:51:01;3.10;99.90
25550;DHT22;13444;50.562;7.262;2023-03-15T04:53:26;3.20;99.90
25550;DHT22;13444;50.562;7.262;2023-03-15T04:55:52;3.20;99.90
25550;DHT22;13444;50.562;7.262;2023-03-15T04:58:18;3.20;99.90
25550;DHT22;13444;50.562;7.262;2023-03-15T05:00:46;3.20;99.90
25550;DHT22;13444;50.562;7.262;2023-03-15T05:03:11;3.20;99.90
25550;DHT22;13444;50.562;7.262;2023-03-15T05:05:37;3.20;99.90
25550;DHT22;13444;50.562;7.262;2023-03-15T05:08:02;3.20;99.90
25550;DHT22;13444;50.562;7.262;2023-03-15T05:10:28;3.20;99.90
25550;DHT22;13444;50.562;7.262;2023-03-15T05:12:54;3.20;99.90
25550;DHT22;13444;50.562;7.262;2023-03-15T05:15:20;3.20;99.90
25550;DHT22;13444;50.562;7.262;2023-03-15T05:17:46;3.20;99.90
25550;DHT22;13444;50.562;7.262;2023-03-15T05:20:14;3.10;99.90
25550;DHT22;13444;50.562;7.262;2023-03-15T05:22:40;3.20;99.90
25550;DHT22;13444;50.562;7.262;2023-03-15T05:25:07;3.10;99.90
25550;DHT22;13444;50.562;7.262;2023-03-15T05:27:33;3.10;99.90
25550;DHT22;13444;50.562;7.262;2023-03-15T05:29:59;3.10;99.90
25550;DHT22;13444;50.562;7.262;2023-03-15T05:32:29;3.10;99.90
25550;DHT22;13444;50.562;7.262;2023-03-15T05:35:01;3.10;99.90
25550;DHT22;13444;50.562;7.262;2023-03-15T05:37:27;3.10;99.90
25550;DHT22;13444;50.562;7.262;2023-03-15T05:39:53;3.10;99.90
25550;DHT22;13444;50.562;7.262;2023-03-15T05:42:18;3.10;99.90
25550;DHT22;13444;50.562;7.262;2023-03-15T05:44:49;3.20;99.90
25550;DHT22;13444;50.562;7.262;2023-03-15T05:47:15;3.20;99.90
25550;DHT22;13444;50.562;7.262;2023-03-15T05:49:41;3.20;99.90
25550;DHT22;13444;50.562;7.262;2023-03-15T05:52:06;3.20;99.90
25550;DHT22;13444;50.562;7.262;2023-03-15T05:54:32;3.20;99.90
25550;DHT22;13444;50.562;7.262;2023-03-15T05:56:57;3.20;99.90
25550;DHT22;13444;50.562;7.262;2023-03-15T05:59:23;3.30;99.90
25550;DHT22;13444;50.562;7.262;2023-03-15T06:01:48;3.30;99.90
25550;DHT22;13444;50.562;7.262;2023-03-15T06:04:14;3.30;99.90
25550;DHT22;13444;50.562;7.262;2023-03-15T06:06:39;3.40;99.90
25550;DHT22;13444;50.562;7.262;2023-03-15T06:09:05;3.40;99.90
25550;DHT22;13444;50.562;7.262;2023-03-15T06:11:30;3.40;99.90
25550;DHT22;13444;50.562;7.262;2023-03-15T06:13:56;3.40;99.90
25550;DHT22;13444;50.562;7.262;2023-03-15T06:16:22;3.40;99.90
25550;DHT22;13444;50.562;7.262;2023-03-15T06:18:47;3.40;99.90
25550;DHT22;13444;50.562;7.262;2023-03-15T06:21:13;3.40;99.90
25550;DHT22;13444;50.562;7.262;2023-03-15T06:23:38;3.40;99.90
25550;DHT22;13444;50.562;7.262;2023-03-15T06:26:04;3.40;99.90
25550;DHT22;13444;50.562;7.262;2023-03-15T06:28:29;3.40;99.90
25550;DHT22;13444;50.562;7.262;2023-03-15T06:30:55;3.50;99.90
25550;DHT22;13444;50.562;7.262;2023-03-15T06:33:20;3.50;99.90
25550;DHT22;13444;50.562;7.262;2023-03-15T06:35:46;3.60;99.90
25550;DHT22;13444;50.562;7.262;2023-03-15T06:38:11;3.60;99.90
25550;DHT22;13444;50.562;7.262;2023-03-15T06:40:38;3.60;99.90
25550;DHT22;13444;50.562;7.262;2023-03-15T06:43:05;3.60;99.90
25550;DHT22;13444;50.562;7.262;2023-03-15T06:45:32;3.60;99.90
25550;DHT22;13444;50.562;7.262;2023-03-15T06:47:57;3.60;99.90
25550;DHT22;13444;50.562;7.262;2023-03-15T06:50:23;3.70;99.90
25550;DHT22;13444;50.562;7.262;2023-03-15T06:52:49;3.70;99.90
25550;DHT22;13444;50.562;7.262;2023-03-15T06:55:15;3.80;99.90
25550;DHT22;13444;50.562;7.262;2023-03-15T06:57:43;3.80;99.90
25550;DHT22;13444;50.562;7.262;2023-03-15T07:00:09;3.90;99.90
25550;DHT22;13444;50.562;7.262;2023-03-15T07:02:36;3.90;99.90
25550;DHT22;13444;50.562;7.262;2023-03-15T07:05:05;3.90;99.90
25550;DHT22;13444;50.562;7.262;2023-03-15T07:07:31;3.90;99.90
25550;DHT22;13444;50.562;7.262;2023-03-15T07:09:56;3.90;99.90
25550;DHT22;13444;50.562;7.262;2023-03-15T07:12:22;4.00;99.90
25550;DHT22;13444;50.562;7.262;2023-03-15T07:14:47;4.00;99.90
25550;DHT22;13444;50.562;7.262;2023-03-15T07:17:14;4.10;99.90
25550;DHT22;13444;50.562;7.262;2023-03-15T07:19:40;4.20;99.90
25550;DHT22;13444;50.562;7.262;2023-03-15T07:22:06;4.20;99.90
25550;DHT22;13444;50.562;7.262;2023-03-15T07:24:31;4.20;99.90
25550;DHT22;13444;50.562;7.262;2023-03-15T07:26:57;4.20;99.90
25550;DHT22;13444;50.562;7.262;2023-03-15T07:29:23;4.30;99.90
25550;DHT22;13444;50.562;7.262;2023-03-15T07:31:49;4.30;99.90
25550;DHT22;13444;50.562;7.262;2023-03-15T07:34:15;4.30;99.90
25550;DHT22;13444;50.562;7.262;2023-03-15T07:36:41;4.30;99.90
25550;DHT22;13444;50.562;7.262;2023-03-15T07:39:06;4.30;99.90
25550;DHT22;13444;50.562;7.262;2023-03-15T07:41:32;4.30;99.90
25550;DHT22;13444;50.562;7.262;2023-03-15T07:43:57;4.30;99.90
25550;DHT22;13444;50.562;7.262;2023-03-15T07:46:23;4.30;99.90
25550;DHT22;13444;50.562;7.262;2023-03-15T07:48:48;4.40;99.90
25550;DHT22;13444;50.562;7.262;2023-03-15T07:51:14;4.30;99.90
25550;DHT22;13444;50.562;7.262;2023-03-15T07:53:39;4.30;99.90
25550;DHT22;13444;50.562;7.262;2023-03-15T07:56:05;4.30;99.90
25550;DHT22;13444;50.562;7.262;2023-03-15T07:58:31;4.30;99.90
25550;DHT22;13444;50.562;7.262;2023-03-15T08:00:57;4.30;99.90
25550;DHT22;13444;50.562;7.262;2023-03-15T08:03:23;4.30;99.90
25550;DHT22;13444;50.562;7.262;2023-03-15T08:05:51;4.30;99.90
25550;DHT22;13444;50.562;7.262;2023-03-15T08:08:16;4.20;99.90
25550;DHT22;13444;50.562;7.262;2023-03-15T08:10:43;4.20;99.90
25550;DHT22;13444;50.562;7.262;2023-03-15T08:13:09;4.20;99.90
25550;DHT22;13444;50.562;7.262;2023-03-15T08:15:35;4.20;99.90
25550;DHT22;13444;50.562;7.262;2023-03-15T08:18:01;4.20;99.90
25550;DHT22;13444;50.562;7.262;2023-03-15T08:20:27;4.10;99.90
25550;DHT22;13444;50.562;7.262;2023-03-15T08:22:53;4.20;99.90
25550;DHT22;13444;50.562;7.262;2023-03-15T08:25:21;4.20;99.90
25550;DHT22;13444;50.562;7.262;2023-03-15T08:27:48;4.20;99.90
25550;DHT22;13444;50.562;7.262;2023-03-15T08:30:14;4.20;99.90
25550;DHT22;13444;50.562;7.262;2023-03-15T08:32:45;4.20;99.90
25550;DHT22;13444;50.562;7.262;2023-03-15T08:35:12;4.20;99.90
25550;DHT22;13444;50.562;7.262;2023-03-15T08:37:39;4.20;99.90
25550;DHT22;13444;50.562;7.262;2023-03-15T08:40:05;4.30;99.90
25550;DHT22;13444;50.562;7.262;2023-03-15T08:42:37;4.30;99.90
25550;DHT22;13444;50.562;7.262;2023-03-15T08:45:06;4.40;99.90
25550;DHT22;13444;50.562;7.262;2023-03-15T08:47:33;4.50;99.90
25550;DHT22;13444;50.562;7.262;2023-03-15T08:50:06;4.60;99.90
25550;DHT22;13444;50.562;7.262;2023-03-15T08:52:32;4.70;99.90
25550;DHT22;13444;50.562;7.262;2023-03-15T08:54:58;4.80;99.90
25550;DHT22;13444;50.562;7.262;2023-03-15T08:57:24;4.80;99.90
25550;DHT22;13444;50.562;7.262;2023-03-15T08:59:53;4.90;99.90
25550;DHT22;13444;50.562;7.262;2023-03-15T09:02:19;4.90;99.90
25550;DHT22;13444;50.562;7.262;2023-03-15T09:04:46;4.80;99.90
25550;DHT22;13444;50.562;7.262;2023-03-15T09:07:12;4.80;99.90
25550;DHT22;13444;50.562;7.262;2023-03-15T09:09:37;4.90;99.90
25550;DHT22;13444;50.562;7.262;2023-03-15T09:12:03;4.80;99.90
25550;DHT22;13444;50.562;7.262;2023-03-15T09:14:29;4.80;99.90
25550;DHT22;13444;50.562;7.262;2023-03-15T09:16:54;4.80;99.90
25550;DHT22;13444;50.562;7.262;2023-03-15T09:19:20;4.80;99.90
25550;DHT22;13444;50.562;7.262;2023-03-15T09:21:45;4.80;99.90
25550;DHT22;13444;50.562;7.262;2023-03-15T09:24:12;4.90;99.90
25550;DHT22;13444;50.562;7.262;2023-03-15T09:26:37;5.00;99.90
25550;DHT22;13444;50.562;7.262;2023-03-15T09:29:03;5.20;99.90
25550;DHT22;13444;50.562;7.262;2023-03-15T09:31:30;5.20;99.90
25550;DHT22;13444;50.562;7.262;2023-03-15T09:33:56;5.30;99.90
25550;DHT22;13444;50.562;7.262;2023-03-15T09:36:22;5.40;99.90
25550;DHT22;13444;50.562;7.262;2023-03-15T09:38:48;5.60;99.90
25550;DHT22;13444;50.562;7.262;2023-03-15T09:49:26;6.10;99.90
25550;DHT22;13444;50.562;7.262;2023-03-15T09:52:00;6.30;99.90
25550;DHT22;13444;50.562;7.262;2023-03-15T09:54:50;6.30;99.90
25550;DHT22;13444;50.562;7.262;2023-03-15T09:57:21;6.30;99.90
25550;DHT22;13444;50.562;7.262;2023-03-15T09:59:51;6.30;99.90
25550;DHT22;13444;50.562;7.262;2023-03-15T10:02:26;6.30;99.90
25550;DHT22;13444;50.562;7.262;2023-03-15T10:05:07;6.30;99.90
25550;DHT22;13444;50.562;7.262;2023-03-15T10:07:35;6.30;99.90
25550;DHT22;13444;50.562;7.262;2023-03-15T10:10:01;6.60;99.90
25550;DHT22;13444;50.562;7.262;2023-03-15T10:12:33;7.50;99.90
25550;DHT22;13444;50.562;7.262;2023-03-15T10:20:32;10.00;99.90
25550;DHT22;13444;50.562;7.262;2023-03-15T10:23:02;9.90;99.90
25550;DHT22;13444;50.562;7.262;2023-03-15T10:25:31;9.60;99.90
25550;DHT22;13444;50.562;7.262;2023-03-15T10:28:13;8.80;99.90
25550;DHT22;13444;50.562;7.262;2023-03-15T10:30:46;7.90;99.90
25550;DHT22;13444;50.562;7.262;2023-03-15T10:33:30;7.40;99.90
25550;DHT22;13444;50.562;7.262;2023-03-15T10:35:57;7.20;99.90
25550;DHT22;13444;50.562;7.262;2023-03-15T10:38:24;7.00;99.90
25550;DHT22;13444;50.562;7.262;2023-03-15T10:40:56;6.90;99.90
25550;DHT22;13444;50.562;7.262;2023-03-15T10:43:27;6.90;99.90
25550;DHT22;13444;50.562;7.262;2023-03-15T10:46:08;6.90;99.90
25550;DHT22;13444;50.562;7.262;2023-03-15T10:48:59;7.40;99.90
25550;DHT22;13444;50.562;7.262;2023-03-15T10:51:32;8.50;99.90
25550;DHT22;13444;50.562;7.262;2023-03-15T10:54:06;9.80;99.90
25550;DHT22;13444;50.562;7.262;2023-03-15T10:57:03;10.80;99.90
25550;DHT22;13444;50.562;7.262;2023-03-15T10:59:29;11.80;99.90
25550;DHT22;13444;50.562;7.262;2023-03-15T11:02:19;12.30;99.90
25550;DHT22;13444;50.562;7.262;2023-03-15T11:04:59;12.70;99.90
25550;DHT22;13444;50.562;7.262;2023-03-15T11:07:25;12.10;99.90
25550;DHT22;13444;50.562;7.262;2023-03-15T11:09:53;11.50;99.90
25550;DHT22;13444;50.562;7.262;2023-03-15T11:12:24;10.70;99.90
25550;DHT22;13444;50.562;7.262;2023-03-15T11:14:56;10.10;99.90
25550;DHT22;13444;50.562;7.262;2023-03-15T11:17:26;9.60;99.90
25550;DHT22;13444;50.562;7.262;2023-03-15T11:19:57;8.90;99.90
25550;DHT22;13444;50.562;7.262;2023-03-15T11:22:24;8.40;99.90
25550;DHT22;13444;50.562;7.262;2023-03-15T11:24:51;8.20;99.90
25550;DHT22;13444;50.562;7.262;2023-03-15T11:27:22;8.10;99.90
25550;DHT22;13444;50.562;7.262;2023-03-15T11:29:54;8.30;99.90
25550;DHT22;13444;50.562;7.262;2023-03-15T11:32:24;9.10;99.90
25550;DHT22;13444;50.562;7.262;2023-03-15T11:35:01;10.10;99.90
25550;DHT22;13444;50.562;7.262;2023-03-15T11:37:47;10.90;99.90
25550;DHT22;13444;50.562;7.262;2023-03-15T11:40:21;11.70;99.90
25550;DHT22;13444;50.562;7.262;2023-03-15T11:42:57;12.30;99.90
25550;DHT22;13444;50.562;7.262;2023-03-15T11:48:03;13.60;99.90
25550;DHT22;13444;50.562;7.262;2023-03-15T11:50:33;13.30;99.90
25550;DHT22;13444;50.562;7.262;2023-03-15T11:52:59;13.30;99.90
25550;DHT22;13444;50.562;7.262;2023-03-15T11:55:28;13.10;99.90
25550;DHT22;13444;50.562;7.262;2023-03-15T11:57:54;12.60;99.90
25550;DHT22;13444;50.562;7.262;2023-03-15T12:03:30;11.80;99.90
25550;DHT22;13444;50.562;7.262;2023-03-15T12:08:54;10.70;99.90
25550;DHT22;13444;50.562;7.262;2023-03-15T12:16:34;10.20;99.90
25550;DHT22;13444;50.562;7.262;2023-03-15T12:19:15;10.80;99.90
25550;DHT22;13444;50.562;7.262;2023-03-15T12:24:28;11.60;99.90
25550;DHT22;13444;50.562;7.262;2023-03-15T12:27:06;11.70;99.90
25550;DHT22;13444;50.562;7.262;2023-03-15T12:29:38;11.90;99.90
25550;DHT22;13444;50.562;7.262;2023-03-15T12:32:10;11.80;99.90
25550;DHT22;13444;50.562;7.262;2023-03-15T12:34:50;11.90;99.90
25550;DHT22;13444;50.562;7.262;2023-03-15T12:37:25;11.70;99.90
25550;DHT22;13444;50.562;7.262;2023-03-15T12:40:01;11.60;99.90
25550;DHT22;13444;50.562;7.262;2023-03-15T12:50:48;10.70;99.90
25550;DHT22;13444;50.562;7.262;2023-03-15T12:53:37;10.60;99.90
25550;DHT22;13444;50.562;7.262;2023-03-15T12:56:39;11.00;99.90
25550;DHT22;13444;50.562;7.262;2023-03-15T12:59:15;11.50;99.90
25550;DHT22;13444;50.562;7.262;2023-03-15T13:01:41;11.90;99.90
25550;DHT22;13444;50.562;7.262;2023-03-15T13:04:09;12.10;99.90
25550;DHT22;13444;50.562;7.262;2023-03-15T13:12:11;12.30;99.90
25550;DHT22;13444;50.562;7.262;2023-03-15T13:15:01;12.40;99.90
25550;DHT22;13444;50.562;7.262;2023-03-15T13:23:28;11.10;99.90
25550;DHT22;13444;50.562;7.262;2023-03-15T13:26:23;10.90;99.90
25550;DHT22;13444;50.562;7.262;2023-03-15T13:29:11;11.00;99.90
25550;DHT22;13444;50.562;7.262;2023-03-15T13:31:39;11.10;99.90
25550;DHT22;13444;50.562;7.262;2023-03-15T13:34:22;11.10;99.90
25550;DHT22;13444;50.562;7.262;2023-03-15T13:36:54;11.20;99.90
25550;DHT22;13444;50.562;7.262;2023-03-15T13:39:21;11.20;99.90
25550;DHT22;13444;50.562;7.262;2023-03-15T13:41:58;11.30;99.90
25550;DHT22;13444;50.562;7.262;2023-03-15T13:44:24;11.20;99.90
25550;DHT22;13444;50.562;7.262;2023-03-15T13:46:51;11.20;99.90
25550;DHT22;13444;50.562;7.262;2023-03-15T13:49:18;11.20;99.90
25550;DHT22;13444;50.562;7.262;2023-03-15T13:51:45;11.20;99.90
25550;DHT22;13444;50.562;7.262;2023-03-15T13:54:29;11.10;99.90
25550;DHT22;13444;50.562;7.262;2023-03-15T13:57:06;11.20;99.90
25550;DHT22;13444;50.562;7.262;2023-03-15T13:59:58;11.20;99.90
25550;DHT22;13444;50.562;7.262;2023-03-15T14:02:43;11.20;99.90
25550;DHT22;13444;50.562;7.262;2023-03-15T14:05:15;11.10;99.90
25550;DHT22;13444;50.562;7.262;2023-03-15T14:07:47;11.00;99.90
25550;DHT22;13444;50.562;7.262;2023-03-15T14:10:31;10.90;99.90
25550;DHT22;13444;50.562;7.262;2023-03-15T14:13:22;10.90;99.90
25550;DHT22;13444;50.562;7.262;2023-03-15T14:15:46;10.90;99.90
25550;DHT22;13444;50.562;7.262;2023-03-15T14:18:23;10.90;99.90
25550;DHT22;13444;50.562;7.262;2023-03-15T14:21:06;10.90;99.90
25550;DHT22;13444;50.562;7.262;2023-03-15T14:23:43;10.90;99.90
25550;DHT22;13444;50.562;7.262;2023-03-15T14:26:18;10.90;99.90
25550;DHT22;13444;50.562;7.262;2023-03-15T14:28:53;10.90;99.90
25550;DHT22;13444;50.562;7.262;2023-03-15T14:31:26;11.00;99.90
25550;DHT22;13444;50.562;7.262;2023-03-15T14:33:55;10.90;99.90
25550;DHT22;13444;50.562;7.262;2023-03-15T14:36:32;10.70;99.90
25550;DHT22;13444;50.562;7.262;2023-03-15T14:39:03;10.60;99.90
25550;DHT22;13444;50.562;7.262;2023-03-15T14:41:31;10.40;99.90
25550;DHT22;13444;50.562;7.262;2023-03-15T14:43:58;10.20;99.90
25550;DHT22;13444;50.562;7.262;2023-03-15T14:46:25;9.90;99.90
25550;DHT22;13444;50.562;7.262;2023-03-15T14:48:51;9.90;99.90
25550;DHT22;13444;50.562;7.262;2023-03-15T14:51:19;9.70;99.90
25550;DHT22;13444;50.562;7.262;2023-03-15T14:53:47;9.70;99.90
25550;DHT22;13444;50.562;7.262;2023-03-15T14:56:13;9.80;99.90
25550;DHT22;13444;50.562;7.262;2023-03-15T14:58:40;9.80;99.90
25550;DHT22;13444;50.562;7.262;2023-03-15T15:01:08;9.70;99.90
25550;DHT22;13444;50.562;7.262;2023-03-15T15:03:36;9.70;99.90
25550;DHT22;13444;50.562;7.262;2023-03-15T15:06:07;9.80;99.90
25550;DHT22;13444;50.562;7.262;2023-03-15T15:08:33;9.80;99.90
25550;DHT22;13444;50.562;7.262;2023-03-15T15:11:03;9.70;99.90
25550;DHT22;13444;50.562;7.262;2023-03-15T15:13:29;9.70;99.90
25550;DHT22;13444;50.562;7.262;2023-03-15T15:15:56;9.70;99.90
25550;DHT22;13444;50.562;7.262;2023-03-15T15:18:27;9.60;99.90
25550;DHT22;13444;50.562;7.262;2023-03-15T15:20:54;9.60;99.90
25550;DHT22;13444;50.562;7.262;2023-03-15T15:23:23;9.60;99.90
25550;DHT22;13444;50.562;7.262;2023-03-15T15:25:53;9.70;99.90
25550;DHT22;13444;50.562;7.262;2023-03-15T15:28:19;9.60;99.90
25550;DHT22;13444;50.562;7.262;2023-03-15T15:30:45;9.50;99.90
25550;DHT22;13444;50.562;7.262;2023-03-15T15:33:10;9.50;99.90
25550;DHT22;13444;50.562;7.262;2023-03-15T15:35:36;9.50;99.90
25550;DHT22;13444;50.562;7.262;2023-03-15T15:38:04;9.50;99.90
25550;DHT22;13444;50.562;7.262;2023-03-15T15:40:32;9.50;99.90
25550;DHT22;13444;50.562;7.262;2023-03-15T15:42:58;9.50;99.90
25550;DHT22;13444;50.562;7.262;2023-03-15T15:45:25;9.50;99.90
25550;DHT22;13444;50.562;7.262;2023-03-15T15:47:50;9.40;99.90
25550;DHT22;13444;50.562;7.262;2023-03-15T15:50:18;9.30;99.90
25550;DHT22;13444;50.562;7.262;2023-03-15T15:52:47;9.30;99.90
25550;DHT22;13444;50.562;7.262;2023-03-15T15:55:19;9.20;99.90
25550;DHT22;13444;50.562;7.262;2023-03-15T15:57:48;9.10;99.90
25550;DHT22;13444;50.562;7.262;2023-03-15T16:00:16;9.10;99.90
25550;DHT22;13444;50.562;7.262;2023-03-15T16:02:43;9.10;99.90
25550;DHT22;13444;50.562;7.262;2023-03-15T16:05:09;9.10;99.90
25550;DHT22;13444;50.562;7.262;2023-03-15T16:07:36;9.00;99.90
25550;DHT22;13444;50.562;7.262;2023-03-15T16:10:02;9.00;99.90
25550;DHT22;13444;50.562;7.262;2023-03-15T16:12:27;9.00;99.90
25550;DHT22;13444;50.562;7.262;2023-03-15T16:14:53;9.00;99.90
25550;DHT22;13444;50.562;7.262;2023-03-15T16:17:21;8.90;99.90
25550;DHT22;13444;50.562;7.262;2023-03-15T16:19:48;8.90;99.90
25550;DHT22;13444;50.562;7.262;2023-03-15T16:22:13;8.80;99.90
25550;DHT22;13444;50.562;7.262;2023-03-15T16:24:40;8.80;99.90
25550;DHT22;13444;50.562;7.262;2023-03-15T16:27:16;8.70;99.90
25550;DHT22;13444;50.562;7.262;2023-03-15T16:29:44;8.70;99.90
25550;DHT22;13444;50.562;7.262;2023-03-15T16:32:23;8.70;99.90
25550;DHT22;13444;50.562;7.262;2023-03-15T16:34:50;8.60;99.90
25550;DHT22;13444;50.562;7.262;2023-03-15T16:37:22;8.60;99.90
25550;DHT22;13444;50.562;7.262;2023-03-15T16:39:48;8.50;99.90
25550;DHT22;13444;50.562;7.262;2023-03-15T16:42:16;8.50;99.90
25550;DHT22;13444;50.562;7.262;2023-03-15T16:44:42;8.50;99.90
25550;DHT22;13444;50.562;7.262;2023-03-15T16:47:08;8.40;99.90
25550;DHT22;13444;50.562;7.262;2023-03-15T16:49:34;8.40;99.90